sensor_id;sensor_type;location;lat;lon;timestamp;temperature;humidity
14411;DHT22;7290;50.854;4.354;2022-11-12T00:01:30;11.50;99.90
14411;DHT22;7290;50.854;4.354;2022-11-12T00:03:56;11.40;99.90
14411;DHT22;7290;50.854;4.354;2022-11-12T00:06:23;11.50;99.90
14411;DHT22;7290;50.854;4.354;2022-11-12T00:08:49;11.50;99.90
14411;DHT22;7290;50.854;4.354;2022-11-12T00:11:15;11.50;99.90
14411;DHT22;7290;50.854;4.354;2022-11-12T00:13:41;11.40;99.90
14411;DHT22;7290;50.854;4.354;2022-11-12T00:16:07;11.40;99.90
14411;DHT22;7290;50.854;4.354;2022-11-12T00:18:34;11.40;99.90
14411;DHT22;7290;50.854;4.354;2022-11-12T00:21:00;11.40;99.90
14411;DHT22;7290;50.854;4.354;2022-11-12T00:23:27;11.50;99.90
14411;DHT22;7290;50.854;4.354;2022-11-12T00:25:59;11.50;99.90
14411;DHT22;7290;50.854;4.354;2022-11-12T00:28:26;11.50;99.90
14411;DHT22;7290;50.854;4.354;2022-11-12T00:30:52;11.50;99.90
14411;DHT22;7290;50.854;4.354;2022-11-12T00:33:18;11.50;99.90
14411;DHT22;7290;50.854;4.354;2022-11-12T00:35:44;11.50;99.90
14411;DHT22;7290;50.854;4.354;2022-11-12T00:38:10;11.60;99.90
14411;DHT22;7290;50.854;4.354;2022-11-12T00:40:37;11.60;99.90
14411;DHT22;7290;50.854;4.354;2022-11-12T00:43:03;11.50;99.90
14411;DHT22;7290;50.854;4.354;2022-11-12T00:45:29;11.40;99.90
14411;DHT22;7290;50.854;4.354;2022-11-12T00:47:56;11.50;99.90
14411;DHT22;7290;50.854;4.354;2022-11-12T00:50:22;11.60;99.90
14411;DHT22;7290;50.854;4.354;2022-11-12T00:52:50;11.70;99.90
14411;DHT22;7290;50.854;4.354;2022-11-12T00:55:17;11.70;99.90
14411;DHT22;7290;50.854;4.354;2022-11-12T00:57:43;11.80;99.90
14411;DHT22;7290;50.854;4.354;2022-11-12T01:00:14;11.80;99.90
14411;DHT22;7290;50.854;4.354;2022-11-12T01:02:41;11.80;99.90
14411;DHT22;7290;50.854;4.354;2022-11-12T01:05:07;11.80;99.90
14411;DHT22;7290;50.854;4.354;2022-11-12T01:07:34;11.80;99.90
14411;DHT22;7290;50.854;4.354;2022-11-12T01:10:01;11.80;99.90
14411;DHT22;7290;50.854;4.354;2022-11-12T01:12:29;11.80;99.90
14411;DHT22;7290;50.854;4.354;2022-11-12T01:14:56;11.70;99.90
14411;DHT22;7290;50.854;4.354;2022-11-12T01:17:22;11.80;99.90
14411;DHT22;7290;50.854;4.354;2022-11-12T01:19:48;11.70;99.90
14411;DHT22;7290;50.854;4.354;2022-11-12T01:22:15;11.60;99.90
14411;DHT22;7290;50.854;4.354;2022-11-12T01:24:41;11.60;99.90
14411;DHT22;7290;50.854;4.354;2022-11-12T01:27:07;11.60;99.90
14411;DHT22;7290;50.854;4.354;2022-11-12T01:29:33;11.50;99.90
14411;DHT22;7290;50.854;4.354;2022-11-12T01:31:59;11.50;99.90
14411;DHT22;7290;50.854;4.354;2022-11-12T01:34:26;11.50;99.90
14411;DHT22;7290;50.854;4.354;2022-11-12T01:36:52;11.50;99.90
14411;DHT22;7290;50.854;4.354;2022-11-12T01:39:18;11.40;99.90
14411;DHT22;7290;50.854;4.354;2022-11-12T01:41:44;11.50;99.90
14411;DHT22;7290;50.854;4.354;2022-11-12T01:44:13;11.60;99.90
14411;DHT22;7290;50.854;4.354;2022-11-12T01:46:46;11.50;99.90
14411;DHT22;7290;50.854;4.354;2022-11-12T01:49:19;11.50;99.90
14411;DHT22;7290;50.854;4.354;2022-11-12T01:51:49;11.50;99.90
14411;DHT22;7290;50.854;4.354;2022-11-12T01:54:17;11.50;99.90
14411;DHT22;7290;50.854;4.354;2022-11-12T01:56:45;11.50;99.90
14411;DHT22;7290;50.854;4.354;2022-11-12T01:59:17;11.50;99.90
14411;DHT22;7290;50.854;4.354;2022-11-12T02:01:44;11.40;99.90
14411;DHT22;7290;50.854;4.354;2022-11-12T02:04:11;11.40;99.90
14411;DHT22;7290;50.854;4.354;2022-11-12T02:06:39;11.40;99.90
14411;DHT22;7290;50.854;4.354;2022-11-12T02:09:07;11.30;99.90
14411;DHT22;7290;50.854;4.354;2022-11-12T02:11:33;11.30;99.90
14411;DHT22;7290;50.854;4.354;2022-11-12T02:13:59;11.30;99.90
14411;DHT22;7290;50.854;4.354;2022-11-12T02:16:28;11.30;99.90
14411;DHT22;7290;50.854;4.354;2022-11-12T02:18:55;11.30;99.90
14411;DHT22;7290;50.854;4.354;2022-11-12T02:21:22;11.40;99.90
14411;DHT22;7290;50.854;4.354;2022-11-12T02:23:57;11.30;99.90
14411;DHT22;7290;50.854;4.354;2022-11-12T02:26:24;11.30;99.90
14411;DHT22;7290;50.854;4.354;2022-11-12T02:28:50;11.30;99.90
14411;DHT22;7290;50.854;4.354;2022-11-12T02:31:16;11.40;99.90
14411;DHT22;7290;50.854;4.354;2022-11-12T02:33:42;11.40;99.90
14411;DHT22;7290;50.854;4.354;2022-11-12T02:36:08;11.40;99.90
14411;DHT22;7290;50.854;4.354;2022-11-12T02:38:35;11.40;99.90
14411;DHT22;7290;50.854;4.354;2022-11-12T02:41:01;11.30;99.90
14411;DHT22;7290;50.854;4.354;2022-11-12T02:43:28;11.20;99.90
14411;DHT22;7290;50.854;4.354;2022-11-12T02:45:54;11.10;99.90
14411;DHT22;7290;50.854;4.354;2022-11-12T02:48:20;10.90;99.90
14411;DHT22;7290;50.854;4.354;2022-11-12T02:50:46;11.00;99.90
14411;DHT22;7290;50.854;4.354;2022-11-12T02:53:12;11.10;99.90
14411;DHT22;7290;50.854;4.354;2022-11-12T02:55:39;11.10;99.90
14411;DHT22;7290;50.854;4.354;2022-11-12T02:58:07;11.00;99.90
14411;DHT22;7290;50.854;4.354;2022-11-12T03:00:33;11.00;99.90
14411;DHT22;7290;50.854;4.354;2022-11-12T03:02:59;11.10;99.90
14411;DHT22;7290;50.854;4.354;2022-11-12T03:05:26;11.00;99.90
14411;DHT22;7290;50.854;4.354;2022-11-12T03:07:56;10.90;99.90
14411;DHT22;7290;50.854;4.354;2022-11-12T03:10:24;10.90;99.90
14411;DHT22;7290;50.854;4.354;2022-11-12T03:12:51;10.90;99.90
14411;DHT22;7290;50.854;4.354;2022-11-12T03:15:17;10.80;99.90
14411;DHT22;7290;50.854;4.354;2022-11-12T03:17:43;10.90;99.90
14411;DHT22;7290;50.854;4.354;2022-11-12T03:20:10;10.90;99.90
14411;DHT22;7290;50.854;4.354;2022-11-12T03:22:37;10.90;99.90
14411;DHT22;7290;50.854;4.354;2022-11-12T03:25:04;10.80;99.90
14411;DHT22;7290;50.854;4.354;2022-11-12T03:27:31;10.80;99.90
14411;DHT22;7290;50.854;4.354;2022-11-12T03:29:58;10.80;99.90
14411;DHT22;7290;50.854;4.354;2022-11-12T03:32:24;10.80;99.90
14411;DHT22;7290;50.854;4.354;2022-11-12T03:34:50;10.80;99.90
14411;DHT22;7290;50.854;4.354;2022-11-12T03:37:16;10.80;99.90
14411;DHT22;7290;50.854;4.354;2022-11-12T03:39:42;10.80;99.90
14411;DHT22;7290;50.854;4.354;2022-11-12T03:42:09;10.90;99.90
14411;DHT22;7290;50.854;4.354;2022-11-12T03:44:35;10.90;99.90
14411;DHT22;7290;50.854;4.354;2022-11-12T03:47:01;11.00;99.90
14411;DHT22;7290;50.854;4.354;2022-11-12T03:49:27;10.90;99.90
14411;DHT22;7290;50.854;4.354;2022-11-12T03:51:53;10.80;99.90
14411;DHT22;7290;50.854;4.354;2022-11-12T03:54:20;10.80;99.90
14411;DHT22;7290;50.854;4.354;2022-11-12T03:56:46;10.70;99.90
14411;DHT22;7290;50.854;4.354;2022-11-12T03:59:11;10.70;99.90
14411;DHT22;7290;50.854;4.354;2022-11-12T04:01:37;10.70;99.90
14411;DHT22;7290;50.854;4.354;2022-11-12T04:04:04;10.70;99.90
14411;DHT22;7290;50.854;4.354;2022-11-12T04:06:30;10.70;99.90
14411;DHT22;7290;50.854;4.354;2022-11-12T04:09:14;10.70;99.90
14411;DHT22;7290;50.854;4.354;2022-11-12T04:11:40;10.70;99.90
14411;DHT22;7290;50.854;4.354;2022-11-12T04:14:07;10.50;99.90
14411;DHT22;7290;50.854;4.354;2022-11-12T04:16:32;10.40;99.90
14411;DHT22;7290;50.854;4.354;2022-11-12T04:19:17;10.50;99.90
14411;DHT22;7290;50.854;4.354;2022-11-12T04:22:03;10.50;99.90
14411;DHT22;7290;50.854;4.354;2022-11-12T04:24:31;10.50;99.90
14411;DHT22;7290;50.854;4.354;2022-11-12T04:27:17;10.50;99.90
14411;DHT22;7290;50.854;4.354;2022-11-12T04:29:45;10.50;99.90
14411;DHT22;7290;50.854;4.354;2022-11-12T04:32:30;10.50;99.90
14411;DHT22;7290;50.854;4.354;2022-11-12T04:34:58;10.50;99.90
14411;DHT22;7290;50.854;4.354;2022-11-12T04:37:25;10.50;99.90
14411;DHT22;7290;50.854;4.354;2022-11-12T04:39:52;10.50;99.90
14411;DHT22;7290;50.854;4.354;2022-11-12T04:42:18;10.50;99.90
14411;DHT22;7290;50.854;4.354;2022-11-12T04:45:04;10.50;99.90
14411;DHT22;7290;50.854;4.354;2022-11-12T04:47:32;10.50;99.90
14411;DHT22;7290;50.854;4.354;2022-11-12T04:50:00;10.50;99.90
14411;DHT22;7290;50.854;4.354;2022-11-12T04:52:28;10.50;99.90
14411;DHT22;7290;50.854;4.354;2022-11-12T04:54:54;10.50;99.90
14411;DHT22;7290;50.854;4.354;2022-11-12T04:57:20;10.60;99.90
14411;DHT22;7290;50.854;4.354;2022-11-12T04:59:47;10.60;99.90
14411;DHT22;7290;50.854;4.354;2022-11-12T05:02:13;10.50;99.90
14411;DHT22;7290;50.854;4.354;2022-11-12T05:04:39;10.60;99.90
14411;DHT22;7290;50.854;4.354;2022-11-12T05:07:06;10.50;99.90
14411;DHT22;7290;50.854;4.354;2022-11-12T05:09:32;10.60;99.90
14411;DHT22;7290;50.854;4.354;2022-11-12T05:11:59;10.60;99.90
14411;DHT22;7290;50.854;4.354;2022-11-12T05:14:25;10.50;99.90
14411;DHT22;7290;50.854;4.354;2022-11-12T05:16:51;10.50;99.90
14411;DHT22;7290;50.854;4.354;2022-11-12T05:19:17;10.50;99.90
14411;DHT22;7290;50.854;4.354;2022-11-12T05:21:44;10.50;99.90
14411;DHT22;7290;50.854;4.354;2022-11-12T05:24:29;10.50;99.90
14411;DHT22;7290;50.854;4.354;2022-11-12T05:26:55;10.40;99.90
14411;DHT22;7290;50.854;4.354;2022-11-12T05:29:21;10.50;99.90
14411;DHT22;7290;50.854;4.354;2022-11-12T05:31:47;10.50;99.90
14411;DHT22;7290;50.854;4.354;2022-11-12T05:34:14;10.50;99.90
14411;DHT22;7290;50.854;4.354;2022-11-12T05:36:40;10.50;99.90
14411;DHT22;7290;50.854;4.354;2022-11-12T05:39:06;10.50;99.90
14411;DHT22;7290;50.854;4.354;2022-11-12T05:41:32;10.40;99.90
14411;DHT22;7290;50.854;4.354;2022-11-12T05:43:58;10.40;99.90
14411;DHT22;7290;50.854;4.354;2022-11-12T05:46:24;10.40;99.90
14411;DHT22;7290;50.854;4.354;2022-11-12T05:48:50;10.30;99.90
14411;DHT22;7290;50.854;4.354;2022-11-12T05:51:16;10.40;99.90
14411;DHT22;7290;50.854;4.354;2022-11-12T05:53:43;10.40;99.90
14411;DHT22;7290;50.854;4.354;2022-11-12T05:56:10;10.40;99.90
14411;DHT22;7290;50.854;4.354;2022-11-12T05:58:37;10.40;99.90
14411;DHT22;7290;50.854;4.354;2022-11-12T06:01:03;10.40;99.90
14411;DHT22;7290;50.854;4.354;2022-11-12T06:03:30;10.40;99.90
14411;DHT22;7290;50.854;4.354;2022-11-12T06:05:56;10.30;99.90
14411;DHT22;7290;50.854;4.354;2022-11-12T06:08:22;10.20;99.90
14411;DHT22;7290;50.854;4.354;2022-11-12T06:10:49;10.30;99.90
14411;DHT22;7290;50.854;4.354;2022-11-12T06:13:15;10.20;99.90
14411;DHT22;7290;50.854;4.354;2022-11-12T06:15:42;10.20;99.90
14411;DHT22;7290;50.854;4.354;2022-11-12T06:18:09;10.20;99.90
14411;DHT22;7290;50.854;4.354;2022-11-12T06:20:35;10.20;99.90
14411;DHT22;7290;50.854;4.354;2022-11-12T06:23:01;10.10;99.90
14411;DHT22;7290;50.854;4.354;2022-11-12T06:25:27;10.10;99.90
14411;DHT22;7290;50.854;4.354;2022-11-12T06:27:53;10.00;99.90
14411;DHT22;7290;50.854;4.354;2022-11-12T06:30:19;9.90;99.90
14411;DHT22;7290;50.854;4.354;2022-11-12T06:32:46;9.80;99.90
14411;DHT22;7290;50.854;4.354;2022-11-12T06:35:13;9.90;99.90
14411;DHT22;7290;50.854;4.354;2022-11-12T06:37:40;9.90;99.90
14411;DHT22;7290;50.854;4.354;2022-11-12T06:40:07;10.00;99.90
14411;DHT22;7290;50.854;4.354;2022-11-12T06:42:34;9.90;99.90
14411;DHT22;7290;50.854;4.354;2022-11-12T06:45:00;9.90;99.90
14411;DHT22;7290;50.854;4.354;2022-11-12T06:47:26;9.90;99.90
14411;DHT22;7290;50.854;4.354;2022-11-12T06:49:53;9.90;99.90
14411;DHT22;7290;50.854;4.354;2022-11-12T06:52:19;9.90;99.90
14411;DHT22;7290;50.854;4.354;2022-11-12T06:54:45;9.90;99.90
14411;DHT22;7290;50.854;4.354;2022-11-12T06:57:11;10.00;99.90
14411;DHT22;7290;50.854;4.354;2022-11-12T06:59:37;10.00;99.90
14411;DHT22;7290;50.854;4.354;2022-11-12T07:02:03;10.00;99.90
14411;DHT22;7290;50.854;4.354;2022-11-12T07:04:30;10.10;99.90
14411;DHT22;7290;50.854;4.354;2022-11-12T07:06:57;10.30;99.90
14411;DHT22;7290;50.854;4.354;2022-11-12T07:09:23;10.30;99.90
14411;DHT22;7290;50.854;4.354;2022-11-12T07:11:49;10.20;99.90
14411;DHT22;7290;50.854;4.354;2022-11-12T07:14:15;10.30;99.90
14411;DHT22;7290;50.854;4.354;2022-11-12T07:16:41;10.30;99.90
14411;DHT22;7290;50.854;4.354;2022-11-12T07:19:07;10.40;99.90
14411;DHT22;7290;50.854;4.354;2022-11-12T07:21:33;10.50;99.90
14411;DHT22;7290;50.854;4.354;2022-11-12T07:24:00;10.50;99.90
14411;DHT22;7290;50.854;4.354;2022-11-12T07:26:26;10.50;99.90
14411;DHT22;7290;50.854;4.354;2022-11-12T07:28:52;10.60;99.90
14411;DHT22;7290;50.854;4.354;2022-11-12T07:31:21;10.60;99.90
14411;DHT22;7290;50.854;4.354;2022-11-12T07:33:48;10.70;99.90
14411;DHT22;7290;50.854;4.354;2022-11-12T07:36:15;10.60;99.90
14411;DHT22;7290;50.854;4.354;2022-11-12T07:38:42;10.70;99.90
14411;DHT22;7290;50.854;4.354;2022-11-12T07:41:11;10.70;99.90
14411;DHT22;7290;50.854;4.354;2022-11-12T07:43:38;10.70;99.90
14411;DHT22;7290;50.854;4.354;2022-11-12T07:46:06;10.70;99.90
14411;DHT22;7290;50.854;4.354;2022-11-12T07:48:33;10.70;99.90
14411;DHT22;7290;50.854;4.354;2022-11-12T07:51:00;10.70;99.90
14411;DHT22;7290;50.854;4.354;2022-11-12T07:53:26;10.70;99.90
14411;DHT22;7290;50.854;4.354;2022-11-12T07:55:53;10.70;99.90
14411;DHT22;7290;50.854;4.354;2022-11-12T07:58:20;10.80;99.90
14411;DHT22;7290;50.854;4.354;2022-11-12T08:00:46;10.80;99.90
14411;DHT22;7290;50.854;4.354;2022-11-12T08:03:12;10.90;99.90
14411;DHT22;7290;50.854;4.354;2022-11-12T08:05:38;11.00;99.90
14411;DHT22;7290;50.854;4.354;2022-11-12T08:08:04;11.10;99.90
14411;DHT22;7290;50.854;4.354;2022-11-12T08:10:30;11.10;99.90
14411;DHT22;7290;50.854;4.354;2022-11-12T08:12:56;11.00;99.90
14411;DHT22;7290;50.854;4.354;2022-11-12T08:15:23;11.10;99.90
14411;DHT22;7290;50.854;4.354;2022-11-12T08:17:49;11.10;99.90
14411;DHT22;7290;50.854;4.354;2022-11-12T08:20:15;11.10;99.90
14411;DHT22;7290;50.854;4.354;2022-11-12T08:22:41;11.10;99.90
14411;DHT22;7290;50.854;4.354;2022-11-12T08:25:08;11.20;99.90
14411;DHT22;7290;50.854;4.354;2022-11-12T08:27:34;11.20;99.90
14411;DHT22;7290;50.854;4.354;2022-11-12T08:30:00;11.30;99.90
14411;DHT22;7290;50.854;4.354;2022-11-12T08:32:27;11.30;99.90
14411;DHT22;7290;50.854;4.354;2022-11-12T08:34:53;11.40;99.90
14411;DHT22;7290;50.854;4.354;2022-11-12T08:37:19;11.40;99.90
14411;DHT22;7290;50.854;4.354;2022-11-12T08:39:45;11.50;99.90
14411;DHT22;7290;50.854;4.354;2022-11-12T08:42:11;11.50;99.90
14411;DHT22;7290;50.854;4.354;2022-11-12T08:44:37;11.50;99.90
14411;DHT22;7290;50.854;4.354;2022-11-12T08:47:03;11.50;99.90
14411;DHT22;7290;50.854;4.354;2022-11-12T08:49:30;11.60;99.90
14411;DHT22;7290;50.854;4.354;2022-11-12T08:51:56;11.60;99.90
14411;DHT22;7290;50.854;4.354;2022-11-12T08:54:22;11.70;99.90
14411;DHT22;7290;50.854;4.354;2022-11-12T08:56:49;11.70;99.90
14411;DHT22;7290;50.854;4.354;2022-11-12T08:59:15;11.80;99.90
14411;DHT22;7290;50.854;4.354;2022-11-12T09:01:42;11.90;99.90
14411;DHT22;7290;50.854;4.354;2022-11-12T09:04:08;12.00;99.90
14411;DHT22;7290;50.854;4.354;2022-11-12T09:06:35;12.00;99.90
14411;DHT22;7290;50.854;4.354;2022-11-12T09:09:01;12.10;99.90
14411;DHT22;7290;50.854;4.354;2022-11-12T09:11:27;12.20;99.90
14411;DHT22;7290;50.854;4.354;2022-11-12T09:13:53;12.20;99.90
14411;DHT22;7290;50.854;4.354;2022-11-12T09:16:19;12.40;99.90
14411;DHT22;7290;50.854;4.354;2022-11-12T09:18:47;12.50;99.90
14411;DHT22;7290;50.854;4.354;2022-11-12T09:21:13;12.30;99.90
14411;DHT22;7290;50.854;4.354;2022-11-12T09:23:40;12.40;99.90
14411;DHT22;7290;50.854;4.354;2022-11-12T09:26:06;12.50;99.90
14411;DHT22;7290;50.854;4.354;2022-11-12T09:28:32;12.50;99.90
14411;DHT22;7290;50.854;4.354;2022-11-12T09:30:58;12.50;99.90
14411;DHT22;7290;50.854;4.354;2022-11-12T09:33:26;12.50;99.90
14411;DHT22;7290;50.854;4.354;2022-11-12T09:35:53;12.50;99.90
14411;DHT22;7290;50.854;4.354;2022-11-12T09:38:20;12.50;99.90
14411;DHT22;7290;50.854;4.354;2022-11-12T09:41:09;12.50;99.90
14411;DHT22;7290;50.854;4.354;2022-11-12T09:43:40;12.50;99.90
14411;DHT22;7290;50.854;4.354;2022-11-12T09:46:13;12.50;99.90
14411;DHT22;7290;50.854;4.354;2022-11-12T09:48:50;12.50;99.90
14411;DHT22;7290;50.854;4.354;2022-11-12T09:51:22;12.60;99.90
14411;DHT22;7290;50.854;4.354;2022-11-12T09:53:54;12.60;99.90
14411;DHT22;7290;50.854;4.354;2022-11-12T09:56:23;12.70;99.90
14411;DHT22;7290;50.854;4.354;2022-11-12T09:58:50;12.80;99.90
14411;DHT22;7290;50.854;4.354;2022-11-12T10:01:21;13.00;99.90
14411;DHT22;7290;50.854;4.354;2022-11-12T10:03:53;12.90;99.90
14411;DHT22;7290;50.854;4.354;2022-11-12T10:06:25;12.80;99.90
14411;DHT22;7290;50.854;4.354;2022-11-12T10:08:56;12.80;99.90
14411;DHT22;7290;50.854;4.354;2022-11-12T10:11:46;12.90;99.90
14411;DHT22;7290;50.854;4.354;2022-11-12T10:14:47;13.00;99.90
14411;DHT22;7290;50.854;4.354;2022-11-12T10:17:28;13.10;99.90
14411;DHT22;7290;50.854;4.354;2022-11-12T10:20:08;13.10;99.90
14411;DHT22;7290;50.854;4.354;2022-11-12T10:22:48;13.20;99.90
14411;DHT22;7290;50.854;4.354;2022-11-12T10:25:19;13.20;99.90
14411;DHT22;7290;50.854;4.354;2022-11-12T10:27:47;13.90;99.90
14411;DHT22;7290;50.854;4.354;2022-11-12T10:30:15;15.50;99.90
14411;DHT22;7290;50.854;4.354;2022-11-12T10:32:43;17.00;99.90
14411;DHT22;7290;50.854;4.354;2022-11-12T10:35:10;18.40;99.90
14411;DHT22;7290;50.854;4.354;2022-11-12T10:37:41;19.90;99.90
14411;DHT22;7290;50.854;4.354;2022-11-12T10:40:29;21.00;99.90
14411;DHT22;7290;50.854;4.354;2022-11-12T10:42:58;21.70;99.90
14411;DHT22;7290;50.854;4.354;2022-11-12T10:45:24;21.60;99.90
14411;DHT22;7290;50.854;4.354;2022-11-12T10:47:51;21.70;99.90
14411;DHT22;7290;50.854;4.354;2022-11-12T10:50:19;21.70;99.90
14411;DHT22;7290;50.854;4.354;2022-11-12T10:52:57;22.60;99.90
14411;DHT22;7290;50.854;4.354;2022-11-12T10:55:26;23.10;99.90
14411;DHT22;7290;50.854;4.354;2022-11-12T10:58:13;23.00;99.90
14411;DHT22;7290;50.854;4.354;2022-11-12T11:00:55;23.10;99.90
14411;DHT22;7290;50.854;4.354;2022-11-12T11:03:23;22.50;99.90
14411;DHT22;7290;50.854;4.354;2022-11-12T11:05:52;22.20;99.90
14411;DHT22;7290;50.854;4.354;2022-11-12T11:08:32;22.20;99.90
14411;DHT22;7290;50.854;4.354;2022-11-12T11:11:21;22.90;99.90
14411;DHT22;7290;50.854;4.354;2022-11-12T11:13:50;23.50;99.60
14411;DHT22;7290;50.854;4.354;2022-11-12T11:16:18;23.20;99.70
14411;DHT22;7290;50.854;4.354;2022-11-12T11:18:47;23.30;99.70
14411;DHT22;7290;50.854;4.354;2022-11-12T11:21:31;22.50;99.90
14411;DHT22;7290;50.854;4.354;2022-11-12T11:24:10;22.70;99.90
14411;DHT22;7290;50.854;4.354;2022-11-12T11:26:45;22.90;99.90
14411;DHT22;7290;50.854;4.354;2022-11-12T11:29:23;23.00;99.90
14411;DHT22;7290;50.854;4.354;2022-11-12T11:31:56;23.20;99.90
14411;DHT22;7290;50.854;4.354;2022-11-12T11:34:33;23.50;99.50
14411;DHT22;7290;50.854;4.354;2022-11-12T11:37:07;23.90;99.10
14411;DHT22;7290;50.854;4.354;2022-11-12T11:39:46;24.00;99.20
14411;DHT22;7290;50.854;4.354;2022-11-12T11:42:31;23.90;98.80
14411;DHT22;7290;50.854;4.354;2022-11-12T11:45:15;24.30;98.50
14411;DHT22;7290;50.854;4.354;2022-11-12T11:47:47;23.90;98.60
14411;DHT22;7290;50.854;4.354;2022-11-12T11:50:23;23.70;99.00
14411;DHT22;7290;50.854;4.354;2022-11-12T11:52:56;23.50;99.60
14411;DHT22;7290;50.854;4.354;2022-11-12T11:55:41;23.50;99.60
14411;DHT22;7290;50.854;4.354;2022-11-12T11:58:21;23.10;99.90
14411;DHT22;7290;50.854;4.354;2022-11-12T12:00:59;23.20;99.90
14411;DHT22;7290;50.854;4.354;2022-11-12T12:03:33;23.20;99.90
14411;DHT22;7290;50.854;4.354;2022-11-12T12:06:18;23.30;99.80
14411;DHT22;7290;50.854;4.354;2022-11-12T12:08:58;23.50;99.60
14411;DHT22;7290;50.854;4.354;2022-11-12T12:11:33;23.50;99.90
14411;DHT22;7290;50.854;4.354;2022-11-12T12:14:16;23.50;99.80
14411;DHT22;7290;50.854;4.354;2022-11-12T12:17:05;23.40;99.80
14411;DHT22;7290;50.854;4.354;2022-11-12T12:19:47;23.50;99.70
14411;DHT22;7290;50.854;4.354;2022-11-12T12:22:20;23.60;99.60
14411;DHT22;7290;50.854;4.354;2022-11-12T12:24:50;23.70;99.50
14411;DHT22;7290;50.854;4.354;2022-11-12T12:27:20;23.60;99.70
14411;DHT22;7290;50.854;4.354;2022-11-12T12:29:49;22.70;99.90
14411;DHT22;7290;50.854;4.354;2022-11-12T12:32:21;22.40;99.90
14411;DHT22;7290;50.854;4.354;2022-11-12T12:34:52;22.10;99.90
14411;DHT22;7290;50.854;4.354;2022-11-12T12:37:23;21.70;99.90
14411;DHT22;7290;50.854;4.354;2022-11-12T12:39:57;21.60;99.90
14411;DHT22;7290;50.854;4.354;2022-11-12T12:42:30;21.20;99.90
14411;DHT22;7290;50.854;4.354;2022-11-12T12:45:02;20.60;99.90
14411;DHT22;7290;50.854;4.354;2022-11-12T12:47:39;20.00;99.90
14411;DHT22;7290;50.854;4.354;2022-11-12T12:50:11;19.40;99.90
14411;DHT22;7290;50.854;4.354;2022-11-12T12:53:00;18.90;99.90
14411;DHT22;7290;50.854;4.354;2022-11-12T12:55:35;18.80;99.90
14411;DHT22;7290;50.854;4.354;2022-11-12T12:58:01;18.50;99.90
14411;DHT22;7290;50.854;4.354;2022-11-12T13:00:32;18.40;99.90
14411;DHT22;7290;50.854;4.354;2022-11-12T13:03:00;18.30;99.90
14411;DHT22;7290;50.854;4.354;2022-11-12T13:05:28;18.10;99.90
14411;DHT22;7290;50.854;4.354;2022-11-12T13:07:58;18.10;99.90
14411;DHT22;7290;50.854;4.354;2022-11-12T13:10:52;18.10;99.90
14411;DHT22;7290;50.854;4.354;2022-11-12T13:13:29;18.10;99.90
14411;DHT22;7290;50.854;4.354;2022-11-12T13:15:58;18.20;99.90
14411;DHT22;7290;50.854;4.354;2022-11-12T13:18:56;18.20;99.90
14411;DHT22;7290;50.854;4.354;2022-11-12T13:21:23;18.20;99.90
14411;DHT22;7290;50.854;4.354;2022-11-12T13:23:50;18.00;99.90
14411;DHT22;7290;50.854;4.354;2022-11-12T13:26:49;18.20;99.90
14411;DHT22;7290;50.854;4.354;2022-11-12T13:29:23;18.30;99.90
14411;DHT22;7290;50.854;4.354;2022-11-12T13:32:30;18.20;99.90
14411;DHT22;7290;50.854;4.354;2022-11-12T13:35:30;18.30;99.90
14411;DHT22;7290;50.854;4.354;2022-11-12T13:38:01;18.30;99.90
14411;DHT22;7290;50.854;4.354;2022-11-12T13:40:47;18.30;99.90
14411;DHT22;7290;50.854;4.354;2022-11-12T13:43:25;18.30;99.90
14411;DHT22;7290;50.854;4.354;2022-11-12T13:45:58;18.40;99.90
14411;DHT22;7290;50.854;4.354;2022-11-12T13:48:29;18.40;99.90
14411;DHT22;7290;50.854;4.354;2022-11-12T13:50:58;18.40;99.90
14411;DHT22;7290;50.854;4.354;2022-11-12T13:53:27;18.40;99.90
14411;DHT22;7290;50.854;4.354;2022-11-12T13:55:55;18.40;99.90
14411;DHT22;7290;50.854;4.354;2022-11-12T13:58:27;18.50;99.90
14411;DHT22;7290;50.854;4.354;2022-11-12T14:00:55;18.40;99.90
14411;DHT22;7290;50.854;4.354;2022-11-12T14:03:22;18.40;99.90
14411;DHT22;7290;50.854;4.354;2022-11-12T14:05:50;18.50;99.90
14411;DHT22;7290;50.854;4.354;2022-11-12T14:08:49;18.50;99.90
14411;DHT22;7290;50.854;4.354;2022-11-12T14:11:47;18.50;99.90
14411;DHT22;7290;50.854;4.354;2022-11-12T14:14:25;18.40;99.90
14411;DHT22;7290;50.854;4.354;2022-11-12T14:17:03;18.30;99.90
14411;DHT22;7290;50.854;4.354;2022-11-12T14:20:06;18.30;99.90
14411;DHT22;7290;50.854;4.354;2022-11-12T14:22:39;18.30;99.90
14411;DHT22;7290;50.854;4.354;2022-11-12T14:25:13;18.40;99.90
14411;DHT22;7290;50.854;4.354;2022-11-12T14:27:40;18.50;99.90
14411;DHT22;7290;50.854;4.354;2022-11-12T14:30:22;18.60;99.90
14411;DHT22;7290;50.854;4.354;2022-11-12T14:32:51;18.70;99.90
14411;DHT22;7290;50.854;4.354;2022-11-12T14:35:36;18.70;99.90
14411;DHT22;7290;50.854;4.354;2022-11-12T14:38:13;18.70;99.90
14411;DHT22;7290;50.854;4.354;2022-11-12T14:40:44;18.70;99.90
14411;DHT22;7290;50.854;4.354;2022-11-12T14:43:32;18.80;99.90
14411;DHT22;7290;50.854;4.354;2022-11-12T14:46:01;18.80;99.90
14411;DHT22;7290;50.854;4.354;2022-11-12T14:48:28;18.70;99.90
14411;DHT22;7290;50.854;4.354;2022-11-12T14:50:59;18.70;99.90
14411;DHT22;7290;50.854;4.354;2022-11-12T14:53:31;18.60;99.90
14411;DHT22;7290;50.854;4.354;2022-11-12T14:55:58;18.50;99.90
14411;DHT22;7290;50.854;4.354;2022-11-12T14:58:26;18.50;99.90
14411;DHT22;7290;50.854;4.354;2022-11-12T15:00:53;18.50;99.90
14411;DHT22;7290;50.854;4.354;2022-11-12T15:03:23;18.30;99.90
14411;DHT22;7290;50.854;4.354;2022-11-12T15:05:56;18.20;99.90
14411;DHT22;7290;50.854;4.354;2022-11-12T15:08:34;18.20;99.90
14411;DHT22;7290;50.854;4.354;2022-11-12T15:11:15;18.10;99.90
14411;DHT22;7290;50.854;4.354;2022-11-12T15:13:43;18.00;99.90
14411;DHT22;7290;50.854;4.354;2022-11-12T15:16:16;17.90;99.90
14411;DHT22;7290;50.854;4.354;2022-11-12T15:18:43;17.80;99.90
14411;DHT22;7290;50.854;4.354;2022-11-12T15:21:25;17.80;99.90
14411;DHT22;7290;50.854;4.354;2022-11-12T15:23:57;17.70;99.90
14411;DHT22;7290;50.854;4.354;2022-11-12T15:26:33;17.60;99.90
14411;DHT22;7290;50.854;4.354;2022-11-12T15:29:01;17.70;99.90
14411;DHT22;7290;50.854;4.354;2022-11-12T15:31:28;17.80;99.90
14411;DHT22;7290;50.854;4.354;2022-11-12T15:36:55;17.60;99.90
14411;DHT22;7290;50.854;4.354;2022-11-12T15:39:23;17.60;99.90
14411;DHT22;7290;50.854;4.354;2022-11-12T15:41:58;17.70;99.90
14411;DHT22;7290;50.854;4.354;2022-11-12T15:44:25;17.70;99.90
14411;DHT22;7290;50.854;4.354;2022-11-12T15:46:54;17.70;99.90
14411;DHT22;7290;50.854;4.354;2022-11-12T15:49:23;17.80;99.90
14411;DHT22;7290;50.854;4.354;2022-11-12T15:51:49;17.80;99.90
14411;DHT22;7290;50.854;4.354;2022-11-12T15:54:15;17.70;99.90
14411;DHT22;7290;50.854;4.354;2022-11-12T15:56:43;17.60;99.90
14411;DHT22;7290;50.854;4.354;2022-11-12T15:59:11;17.60;99.90
14411;DHT22;7290;50.854;4.354;2022-11-12T16:01:40;17.50;99.90
14411;DHT22;7290;50.854;4.354;2022-11-12T16:04:06;17.40;99.90
14411;DHT22;7290;50.854;4.354;2022-11-12T16:06:32;17.40;99.90
14411;DHT22;7290;50.854;4.354;2022-11-12T16:08:58;17.40;99.90